Time;durP1;ratioP1;P1;durP2;ratioP2;P2;SDS_P1;SDS_P2;PMS_P1;PMS_P2;Temp;Humidity;BMP_temperature;BMP_pressure;BME280_temperature;BME280_humidity;BME280_pressure;Samples;Min_cycle;Max_cycle;Signal;HPM_P1;HPM_P2
2022/03/03 00:02:21;;;;;;;62.30;25.00;;;;;;;1.68;94.84;101717.59;5079314;28;20029;-85
2022/03/03 00:04:46;;;;;;;59.30;22.65;;;;;;;1.57;95.21;101703.50;5081601;28;20035;-85
2022/03/03 00:07:12;;;;;;;73.13;25.35;;;;;;;1.54;95.77;101711.69;5086537;28;20073;-84
2022/03/03 00:09:37;;;;;;;61.47;23.92;;;;;;;1.47;97.54;101705.56;5081977;28;20024;-85
2022/03/03 00:12:03;;;;;;;63.00;24.75;;;;;;;1.39;98.53;101713.88;5068209;28;20036;-85
2022/03/03 00:14:29;;;;;;;73.38;26.77;;;;;;;1.28;99.29;101705.22;5088294;28;20105;-85
2022/03/03 00:16:54;;;;;;;60.42;23.83;;;;;;;1.15;100.00;101712.75;5085836;28;20039;-85
2022/03/03 00:19:20;;;;;;;63.17;25.27;;;;;;;1.07;100.00;101701.25;5078989;28;20043;-85
2022/03/03 00:21:45;;;;;;;55.38;23.88;;;;;;;0.84;100.00;101691.06;5077436;28;20029;-85
2022/03/03 00:24:10;;;;;;;61.65;24.35;;;;;;;0.85;100.00;101707.22;5094600;28;20454;-84
2022/03/03 00:26:36;;;;;;;64.03;23.67;;;;;;;0.79;100.00;101699.25;5072995;28;20044;-85
2022/03/03 00:29:02;;;;;;;58.70;22.92;;;;;;;0.86;100.00;101708.97;5079500;28;20035;-85
2022/03/03 00:31:28;;;;;;;60.25;23.95;;;;;;;0.91;100.00;101703.47;5079659;28;20028;-85
2022/03/03 00:33:53;;;;;;;55.72;22.40;;;;;;;0.87;100.00;101707.13;5102925;28;20443;-85
2022/03/03 00:36:18;;;;;;;51.70;21.77;;;;;;;0.85;100.00;101695.53;5093455;28;20053;-85
2022/03/03 00:38:44;;;;;;;54.35;22.27;;;;;;;0.78;100.00;101670.53;5086489;28;20092;-84
2022/03/03 00:41:09;;;;;;;61.05;23.15;;;;;;;1.04;100.00;101698.66;5100257;28;20025;-85
2022/03/03 00:43:35;;;;;;;52.85;23.30;;;;;;;1.07;100.00;101695.88;5088337;28;20048;-84
2022/03/03 00:46:00;;;;;;;53.33;22.38;;;;;;;1.04;100.00;101688.72;5089570;28;20057;-86
2022/03/03 00:48:26;;;;;;;52.30;22.48;;;;;;;1.12;100.00;101679.56;5079739;28;20040;-85
2022/03/03 00:50:53;;;;;;;58.00;23.83;;;;;;;1.13;100.00;101692.13;5070009;28;20049;-85
2022/03/03 00:53:19;;;;;;;67.28;23.92;;;;;;;1.08;100.00;101689.53;5072119;28;20043;-85
2022/03/03 00:55:44;;;;;;;53.17;21.88;;;;;;;1.04;100.00;101677.94;5067023;28;20046;-84
2022/03/03 00:58:10;;;;;;;51.40;21.65;;;;;;;1.05;100.00;101692.31;5090207;28;20407;-84
2022/03/03 01:00:35;;;;;;;60.72;22.23;;;;;;;0.96;100.00;101689.88;5064033;28;20079;-85
2022/03/03 01:03:01;;;;;;;62.67;22.75;;;;;;;1.01;100.00;101688.81;5083718;28;20582;-84
2022/03/03 01:05:26;;;;;;;59.67;22.27;;;;;;;1.03;100.00;101678.88;5084406;28;20063;-84
2022/03/03 01:07:52;;;;;;;54.53;22.13;;;;;;;1.05;100.00;101684.22;5081819;28;20036;-85
2022/03/03 01:10:17;;;;;;;61.33;22.48;;;;;;;0.99;100.00;101670.91;5066807;28;20029;-84
2022/03/03 01:12:43;;;;;;;61.22;21.83;;;;;;;1.06;100.00;101680.59;5082306;28;20036;-84
2022/03/03 01:15:10;;;;;;;52.35;22.42;;;;;;;1.13;99.93;101681.31;5074067;28;20032;-84
2022/03/03 01:17:36;;;;;;;56.95;22.02;;;;;;;1.09;100.00;101676.00;5095378;28;20032;-84
2022/03/03 01:20:04;;;;;;;55.63;22.02;;;;;;;1.07;99.37;101667.09;5097777;28;20037;-85
2022/03/03 01:22:29;;;;;;;49.35;21.25;;;;;;;1.04;100.00;101677.06;5097044;28;20096;-84
2022/03/03 01:24:54;;;;;;;49.65;21.40;;;;;;;1.05;99.84;101676.13;5082279;28;20088;-85
2022/03/03 01:27:20;;;;;;;52.35;22.05;;;;;;;1.02;100.00;101679.81;5090428;28;20139;-85
2022/03/03 01:29:45;;;;;;;53.70;22.65;;;;;;;0.97;100.00;101675.44;5091371;28;20365;-86
2022/03/03 01:32:11;;;;;;;48.80;21.08;;;;;;;0.98;100.00;101680.78;5088608;28;20142;-86
2022/03/03 01:34:38;;;;;;;63.33;22.60;;;;;;;1.00;100.00;101665.50;5079493;28;20104;-85
2022/03/03 01:37:04;;;;;;;54.33;21.35;;;;;;;0.96;100.00;101666.47;5079407;28;20029;-85
2022/03/03 01:39:30;;;;;;;59.88;23.10;;;;;;;0.91;100.00;101658.50;5067368;28;20391;-85
2022/03/03 01:41:56;;;;;;;49.35;22.08;;;;;;;0.77;100.00;101643.63;5094495;28;20112;-85
2022/03/03 01:44:21;;;;;;;54.17;23.42;;;;;;;0.81;100.00;101646.19;5099797;28;20585;-85
2022/03/03 01:46:52;;;;;;;54.88;22.15;;;;;;;0.69;100.00;101644.72;5086761;28;20055;-85
2022/03/03 01:49:18;;;;;;;58.50;22.42;;;;;;;0.63;100.00;101650.25;5084384;28;20143;-86
2022/03/03 01:51:44;;;;;;;57.60;23.48;;;;;;;0.65;100.00;101653.78;5063724;28;20036;-85
2022/03/03 01:54:10;;;;;;;50.55;21.30;;;;;;;0.64;100.00;101646.63;5092725;28;20062;-85
2022/03/03 01:56:36;;;;;;;56.35;22.25;;;;;;;0.54;100.00;101635.19;5079376;28;20037;-85
2022/03/03 01:59:03;;;;;;;52.70;22.35;;;;;;;0.51;100.00;101623.63;5055574;28;20025;-86
2022/03/03 02:01:31;;;;;;;59.42;23.58;;;;;;;0.44;100.00;101630.06;5070287;28;20510;-85
2022/03/03 02:03:57;;;;;;;50.88;22.13;;;;;;;0.61;100.00;101643.09;5078565;28;20036;-85
2022/03/03 02:06:24;;;;;;;59.38;23.27;;;;;;;0.40;100.00;101612.22;5079911;28;20434;-85
2022/03/03 02:08:49;;;;;;;52.42;21.25;;;;;;;0.64;100.00;101643.94;5075696;28;20029;-84
2022/03/03 02:11:15;;;;;;;60.08;23.55;;;;;;;0.60;100.00;101642.22;5069847;28;20067;-84
2022/03/03 02:13:41;;;;;;;55.35;22.73;;;;;;;0.53;100.00;101640.63;5061869;28;20027;-83
2022/03/03 02:16:08;;;;;;;62.47;23.27;;;;;;;0.40;100.00;101602.31;5095928;28;20096;-83
2022/03/03 02:18:39;;;;;;;52.63;22.92;;;;;;;0.33;100.00;101606.09;5091897;28;20111;-84
2022/03/03 02:21:05;;;;;;;51.38;21.73;;;;;;;0.69;100.00;101638.44;5061522;28;20409;-84
2022/03/03 02:23:30;;;;;;;52.38;22.25;;;;;;;0.60;100.00;101635.97;5079083;28;20059;-85
2022/03/03 02:25:56;;;;;;;60.92;23.98;;;;;;;0.52;100.00;101626.25;5087240;28;20081;-84
2022/03/03 02:28:21;;;;;;;53.00;22.63;;;;;;;0.37;100.00;101605.09;5088996;28;20059;-84
2022/03/03 02:30:47;;;;;;;52.60;22.63;;;;;;;0.34;100.00;101606.06;5093353;28;20399;-85
2022/03/03 02:33:12;;;;;;;52.85;21.98;;;;;;;0.46;100.00;101633.59;5062368;28;20036;-85
2022/03/03 02:35:38;;;;;;;55.80;23.65;;;;;;;0.44;100.00;101633.63;5096468;28;20031;-85
2022/03/03 02:38:04;;;;;;;55.95;21.98;;;;;;;0.39;100.00;101630.16;5089695;28;20107;-84
2022/03/03 02:40:29;;;;;;;52.55;22.05;;;;;;;0.14;100.00;101609.22;5085441;28;20051;-84
2022/03/03 02:42:55;;;;;;;48.58;21.45;;;;;;;0.24;100.00;101619.78;5085449;28;20039;-85
2022/03/03 02:45:22;;;;;;;49.33;21.50;;;;;;;0.27;100.00;101622.41;5084366;28;20031;-85
2022/03/03 02:47:49;;;;;;;51.10;21.98;;;;;;;0.13;100.00;101622.72;5093577;28;20040;-85
2022/03/03 02:50:16;;;;;;;48.47;21.73;;;;;;;0.08;100.00;101625.53;5099975;28;20058;-85
2022/03/03 02:52:42;;;;;;;52.28;21.23;;;;;;;0.05;100.00;101612.16;5087049;28;20095;-85
2022/03/03 02:55:09;;;;;;;54.25;22.50;;;;;;;0.08;100.00;101608.47;5077050;28;20499;-84
2022/03/03 02:57:53;;;;;;;51.47;21.23;;;;;;;0.10;100.00;101602.16;5050643;28;20129;-85
2022/03/03 03:00:20;;;;;;;50.33;20.98;;;;;;;0.11;100.00;101609.28;5092912;28;20047;-85
2022/03/03 03:02:49;;;;;;;49.65;21.20;;;;;;;0.03;100.00;101607.69;5098088;28;20395;-85
2022/03/03 03:05:14;;;;;;;54.85;21.58;;;;;;;-0.01;100.00;101605.06;5088764;28;20029;-86
2022/03/03 03:07:40;;;;;;;50.42;20.48;;;;;;;-0.09;100.00;101603.50;5061299;28;20104;-85
2022/03/03 03:10:06;;;;;;;50.40;21.60;;;;;;;-0.07;100.00;101605.22;5077986;28;20555;-85
2022/03/03 03:12:32;;;;;;;47.72;21.70;;;;;;;-0.10;100.00;101604.41;5066076;28;20031;-85
2022/03/03 03:14:58;;;;;;;59.78;22.58;;;;;;;-0.21;100.00;101591.22;5083050;28;20429;-84
2022/03/03 03:17:23;;;;;;;50.97;21.40;;;;;;;-0.08;100.00;101598.06;5062742;28;20035;-84
2022/03/03 03:19:49;;;;;;;59.97;22.42;;;;;;;-0.10;100.00;101599.03;5079120;28;20087;-84
2022/03/03 03:22:14;;;;;;;47.75;22.10;;;;;;;-0.17;100.00;101597.41;5079380;28;20043;-85
2022/03/03 03:24:39;;;;;;;52.97;21.30;;;;;;;-0.28;100.00;101609.28;5062612;28;20036;-84
2022/03/03 03:27:05;;;;;;;48.83;22.08;;;;;;;-0.57;100.00;101557.00;5057842;28;20048;-85
2022/03/03 03:29:30;;;;;;;51.20;22.50;;;;;;;-0.40;100.00;101588.91;5065489;28;20047;-84
2022/03/03 03:31:56;;;;;;;51.78;21.75;;;;;;;-0.31;100.00;101595.00;5095191;28;20124;-85
2022/03/03 03:34:21;;;;;;;48.42;21.80;;;;;;;-0.28;100.00;101598.53;5090358;28;20033;-86
2022/03/03 03:36:47;;;;;;;58.58;22.90;;;;;;;-0.37;100.00;101596.91;5065040;28;20152;-84
2022/03/03 03:39:12;;;;;;;49.22;21.80;;;;;;;-0.48;100.00;101558.59;5080393;28;20048;-85
2022/03/03 03:41:38;;;;;;;45.63;20.33;;;;;;;-0.32;100.00;101590.56;5109145;28;20032;-85
2022/03/03 03:44:04;;;;;;;55.88;23.70;;;;;;;-0.30;100.00;101588.72;5072271;28;20085;-84
2022/03/03 03:46:29;;;;;;;47.53;21.98;;;;;;;-0.32;100.00;101580.66;5070960;28;20123;-84
2022/03/03 03:48:55;;;;;;;49.90;22.77;;;;;;;-0.30;100.00;101592.28;5079260;28;20124;-84
2022/03/03 03:51:20;;;;;;;66.85;22.92;;;;;;;-0.15;100.00;101588.34;5069118;28;20036;-84
2022/03/03 03:53:46;;;;;;;53.38;22.50;;;;;;;-0.14;100.00;101584.75;5071026;28;20056;-84
2022/03/03 03:56:11;;;;;;;52.17;22.40;;;;;;;-0.26;100.00;101580.53;5091828;28;20055;-84
2022/03/03 03:58:37;;;;;;;57.50;22.83;;;;;;;-0.36;100.00;101584.38;5086766;28;20024;-84
2022/03/03 04:01:02;;;;;;;55.50;21.48;;;;;;;-0.38;100.00;101581.72;5102555;28;20058;-83
2022/03/03 04:03:28;;;;;;;56.40;21.90;;;;;;;-0.42;100.00;101590.75;5086216;28;20032;-85
2022/03/03 04:05:53;;;;;;;49.88;22.23;;;;;;;-0.38;100.00;101584.41;5069868;28;20096;-85
2022/03/03 04:08:19;;;;;;;53.25;21.55;;;;;;;-0.28;100.00;101586.84;5085205;28;20369;-84
2022/03/03 04:10:47;;;;;;;58.83;22.38;;;;;;;-0.34;100.00;101593.28;5085520;28;20028;-84
2022/03/03 04:13:15;;;;;;;55.40;22.95;;;;;;;-0.37;100.00;101585.28;5075816;28;20056;-84
2022/03/03 04:15:41;;;;;;;57.58;22.83;;;;;;;-0.28;100.00;101579.69;5079626;28;20048;-84
2022/03/03 04:18:06;;;;;;;55.10;22.38;;;;;;;-0.33;100.00;101575.31;5082673;28;20029;-83
2022/03/03 04:20:31;;;;;;;56.30;22.55;;;;;;;-0.33;100.00;101562.75;5092648;28;20043;-84
2022/03/03 04:22:57;;;;;;;58.03;22.35;;;;;;;-0.46;100.00;101542.41;5066554;28;20101;-84
2022/03/03 04:25:22;;;;;;;57.60;22.52;;;;;;;-0.36;100.00;101560.16;5087216;28;20024;-84
2022/03/03 04:27:48;;;;;;;54.33;21.42;;;;;;;-0.38;100.00;101565.56;5102608;28;20037;-86
2022/03/03 04:30:14;;;;;;;51.47;20.70;;;;;;;-0.37;100.00;101579.88;5083663;28;20036;-86
2022/03/03 04:32:40;;;;;;;55.58;20.98;;;;;;;-0.49;100.00;101572.06;5078427;28;20031;-86
2022/03/03 04:35:08;;;;;;;47.65;20.63;;;;;;;-0.71;100.00;101558.22;5065811;28;20044;-86
2022/03/03 04:37:34;;;;;;;54.28;20.65;;;;;;;-0.98;100.00;101528.31;5087854;28;20032;-85
2022/03/03 04:39:59;;;;;;;61.35;21.98;;;;;;;-0.93;100.00;101527.28;5085753;28;20068;-86
2022/03/03 04:42:25;;;;;;;57.63;23.15;;;;;;;-0.71;100.00;101545.66;5064630;28;20369;-86
2022/03/03 04:44:50;;;;;;;56.95;21.75;;;;;;;-0.67;100.00;101550.06;5071712;28;20045;-84
2022/03/03 04:47:16;;;;;;;50.47;22.08;;;;;;;-0.69;100.00;101551.88;5082435;28;20029;-86
2022/03/03 04:49:41;;;;;;;70.25;22.70;;;;;;;-0.85;100.00;101550.41;5070272;28;20035;-86
2022/03/03 04:52:07;;;;;;;53.92;21.25;;;;;;;-0.79;100.00;101539.53;5087730;28;20030;-84
2022/03/03 04:54:32;;;;;;;56.30;23.08;;;;;;;-0.75;100.00;101541.28;5103137;28;20094;-84
2022/03/03 04:56:58;;;;;;;54.85;21.55;;;;;;;-0.70;100.00;101550.13;5085658;28;20036;-86
2022/03/03 04:59:24;;;;;;;61.03;23.70;;;;;;;-0.83;100.00;101519.91;5091175;28;20031;-85
2022/03/03 05:01:51;;;;;;;53.35;23.08;;;;;;;-0.68;100.00;101553.66;5076141;28;20564;-85
2022/03/03 05:04:17;;;;;;;49.78;21.00;;;;;;;-0.62;100.00;101556.22;5072039;28;20100;-85
2022/03/03 05:06:43;;;;;;;55.83;21.85;;;;;;;-0.64;100.00;101554.47;5107276;28;20163;-86
2022/03/03 05:09:08;;;;;;;54.58;21.83;;;;;;;-0.75;100.00;101552.03;5088756;28;20032;-86
2022/03/03 05:11:34;;;;;;;54.38;21.70;;;;;;;-0.66;100.00;101545.56;5093296;28;20028;-85
2022/03/03 05:14:00;;;;;;;63.28;22.27;;;;;;;-0.63;100.00;101554.44;5087541;28;20033;-85
2022/03/03 05:16:25;;;;;;;59.38;23.38;;;;;;;-0.59;100.00;101547.19;5080835;28;20059;-84
2022/03/03 05:18:51;;;;;;;50.05;20.17;;;;;;;-0.67;100.00;101544.69;5087847;28;20426;-84
2022/03/03 05:21:16;;;;;;;62.67;22.80;;;;;;;-0.64;100.00;101551.78;5077881;28;20028;-85
2022/03/03 05:23:42;;;;;;;56.47;22.90;;;;;;;-0.77;100.00;101552.06;5069875;28;20033;-84
2022/03/03 05:26:09;;;;;;;62.28;23.27;;;;;;;-0.81;100.00;101546.78;5082751;28;20024;-85
2022/03/03 05:28:34;;;;;;;65.05;22.13;;;;;;;-0.82;100.00;101548.56;5095639;28;20705;-85
2022/03/03 05:31:00;;;;;;;55.28;22.55;;;;;;;-0.96;100.00;101526.47;5084829;28;20033;-84
2022/03/03 05:33:27;;;;;;;68.22;23.83;;;;;;;-0.83;100.00;101548.59;5062755;28;20487;-84
2022/03/03 05:35:58;;;;;;;59.97;21.92;;;;;;;-0.80;100.00;101543.16;5082003;28;20032;-85
2022/03/03 05:38:28;;;;;;;57.70;21.88;;;;;;;-0.71;100.00;101540.28;5064389;28;20029;-85
2022/03/03 05:40:54;;;;;;;64.13;24.25;;;;;;;-0.54;100.00;101557.84;5112785;28;20040;-84
2022/03/03 05:43:19;;;;;;;61.92;23.20;;;;;;;-0.47;100.00;101546.06;5090813;28;20115;-85
2022/03/03 05:45:46;;;;;;;65.50;26.38;;;;;;;-0.43;100.00;101551.31;5074255;28;20033;-84
2022/03/03 05:48:16;;;;;;;60.80;23.75;;;;;;;-0.42;100.00;101549.53;5082310;28;20044;-85
2022/03/03 05:50:42;;;;;;;61.38;23.90;;;;;;;-0.42;100.00;101539.63;5082089;28;20028;-85
2022/03/03 05:53:07;;;;;;;60.92;23.50;;;;;;;-0.42;100.00;101544.16;5064229;28;20048;-84
2022/03/03 05:55:38;;;;;;;70.80;25.13;;;;;;;-0.42;100.00;101545.00;5103535;28;20087;-85
2022/03/03 05:58:06;;;;;;;70.20;25.05;;;;;;;-0.51;100.00;101542.53;5093721;28;20386;-87
2022/03/03 06:00:33;;;;;;;69.30;26.17;;;;;;;-0.53;100.00;101539.00;5081918;28;20349;-84
2022/03/03 06:03:02;;;;;;;72.30;25.90;;;;;;;-0.56;100.00;101539.97;5069480;28;20067;-82
2022/03/03 06:05:28;;;;;;;64.97;26.02;;;;;;;-0.52;100.00;101551.53;5102993;28;20427;-82
2022/03/03 06:08:01;;;;;;;75.95;26.60;;;;;;;-0.74;100.00;101529.56;5073771;28;20029;-81
2022/03/03 06:10:31;;;;;;;63.80;25.02;;;;;;;-0.68;100.00;101539.34;5084567;28;20547;-81
2022/03/03 06:13:19;;;;;;;72.93;25.23;;;;;;;-0.52;100.00;101553.34;5089368;28;20016;-82
2022/03/03 06:15:47;;;;;;;67.10;23.95;;;;;;;-0.50;100.00;101547.00;5114919;28;20120;-82
2022/03/03 06:18:12;;;;;;;65.57;22.42;;;;;;;-0.47;100.00;101540.66;5084159;28;20391;-81
2022/03/03 06:20:40;;;;;;;66.47;23.45;;;;;;;-0.42;100.00;101536.06;5084290;28;20476;-82
2022/03/03 06:23:05;;;;;;;71.55;25.02;;;;;;;-0.42;100.00;101536.94;5083403;28;20468;-82
2022/03/03 06:25:31;;;;;;;64.85;23.38;;;;;;;-0.38;100.00;101540.44;5084700;28;20025;-82
2022/03/03 06:27:56;;;;;;;72.82;24.88;;;;;;;-0.41;100.00;101537.81;5086406;28;20094;-82
2022/03/03 06:30:22;;;;;;;62.45;25.98;;;;;;;-0.40;100.00;101542.28;5081706;28;20107;-82
2022/03/03 06:32:48;;;;;;;71.63;24.65;;;;;;;-0.38;100.00;101532.38;5092697;28;20036;-83
2022/03/03 06:35:15;;;;;;;72.32;25.33;;;;;;;-0.40;100.00;101526.16;5087630;28;20028;-82
2022/03/03 06:37:41;;;;;;;74.22;24.25;;;;;;;-0.41;100.00;101530.66;5098522;28;20029;-82
2022/03/03 06:40:07;;;;;;;72.00;24.77;;;;;;;-0.38;100.00;101541.34;5083859;28;20044;-83
2022/03/03 06:42:33;;;;;;;65.72;25.60;;;;;;;-0.50;100.00;101522.78;5086767;28;20056;-83
2022/03/03 06:44:58;;;;;;;68.55;24.58;;;;;;;-0.41;100.00;101532.44;5081787;28;20055;-83
2022/03/03 06:47:24;;;;;;;66.18;25.98;;;;;;;-0.47;100.00;101541.53;5065254;28;20056;-82
2022/03/03 06:49:49;;;;;;;71.05;26.58;;;;;;;-0.57;100.00;101535.50;5082194;28;20523;-83
2022/03/03 06:52:17;;;;;;;75.05;24.63;;;;;;;-0.57;100.00;101553.44;5084400;28;20030;-83
2022/03/03 06:54:51;;;;;;;73.95;25.67;;;;;;;-0.60;100.00;101549.00;5092754;28;20043;-84
2022/03/03 06:57:20;;;;;;;80.13;25.75;;;;;;;-0.51;100.00;101552.41;5084336;28;20472;-83
2022/03/03 06:59:46;;;;;;;67.75;23.65;;;;;;;-0.65;100.00;101513.25;5098131;28;20045;-84
2022/03/03 07:02:12;;;;;;;63.85;24.90;;;;;;;-0.33;100.00;101545.72;5104745;28;20039;-82
2022/03/03 07:04:37;;;;;;;72.68;24.63;;;;;;;-0.31;100.00;101557.34;5092211;28;20044;-82
2022/03/03 07:07:03;;;;;;;75.53;26.92;;;;;;;0.03;100.00;101564.63;5094772;28;20048;-83
2022/03/03 07:09:32;;;;;;;73.40;26.08;;;;;;;0.17;100.00;101566.06;5064279;28;20051;-82
2022/03/03 07:12:00;;;;;;;71.65;28.10;;;;;;;0.48;100.00;101570.69;5062367;28;20048;-83
2022/03/03 07:14:25;;;;;;;67.82;26.67;;;;;;;0.37;100.00;101562.00;5091507;28;20032;-83
2022/03/03 07:17:08;;;;;;;69.03;25.27;;;;;;;0.62;100.00;101575.72;5104865;28;20029;-83
2022/03/03 07:19:37;;;;;;;79.85;28.00;;;;;;;1.25;100.00;101573.13;5080976;28;20036;-81
2022/03/03 07:22:07;;;;;;;85.57;28.27;;;;;;;1.31;100.00;101572.91;5074340;28;20028;-83
2022/03/03 07:24:39;;;;;;;78.80;27.13;;;;;;;1.40;100.00;101563.69;5094632;28;20067;-83
2022/03/03 07:27:07;;;;;;;85.30;29.85;;;;;;;1.54;100.00;101564.16;5078227;28;20039;-81
2022/03/03 07:29:34;;;;;;;79.05;27.48;;;;;;;1.73;100.00;101574.41;5076727;28;20040;-82
2022/03/03 07:32:05;;;;;;;79.35;28.80;;;;;;;1.70;100.00;101577.19;5092374;28;20032;-82
2022/03/03 07:34:34;;;;;;;89.68;30.08;;;;;;;1.74;100.00;101568.97;5096557;28;20024;-81
2022/03/03 07:37:10;;;;;;;82.88;29.73;;;;;;;1.74;100.00;101560.84;5074711;28;20052;-80
2022/03/03 07:39:40;;;;;;;92.95;30.67;;;;;;;1.94;100.00;101570.16;5077883;28;20046;-82
2022/03/03 07:42:10;;;;;;;93.22;30.60;;;;;;;2.04;98.47;101566.22;5076435;28;20032;-80
2022/03/03 07:44:36;;;;;;;95.55;31.58;;;;;;;2.19;99.08;101567.53;5103241;28;20041;-80
2022/03/03 07:47:02;;;;;;;90.70;32.00;;;;;;;2.26;98.46;101569.09;5086525;28;20380;-82
2022/03/03 07:49:29;;;;;;;97.97;31.98;;;;;;;2.35;97.15;101568.78;5104965;28;20068;-83
2022/03/03 07:51:55;;;;;;;104.30;33.72;;;;;;;2.48;97.01;101566.56;5055539;28;20024;-82
2022/03/03 07:54:20;;;;;;;107.50;35.55;;;;;;;2.64;95.65;101569.63;5076399;28;20061;-81
2022/03/03 07:56:54;;;;;;;107.55;34.15;;;;;;;2.75;94.14;101575.56;5085470;28;20106;-81
2022/03/03 07:59:25;;;;;;;113.63;34.72;;;;;;;2.92;94.99;101585.78;5077219;28;20033;-82
2022/03/03 08:01:54;;;;;;;108.68;36.00;;;;;;;3.08;93.27;101580.69;5084729;28;20441;-84
2022/03/03 08:04:26;;;;;;;106.15;35.53;;;;;;;3.27;93.10;101586.31;5092336;28;20052;-83
2022/03/03 08:06:55;;;;;;;113.63;36.90;;;;;;;3.29;90.42;101581.72;5077886;28;20049;-83
2022/03/03 08:09:23;;;;;;;125.93;35.80;;;;;;;3.49;88.79;101585.50;5086629;28;20033;-82
2022/03/03 08:11:51;;;;;;;108.90;37.13;;;;;;;3.68;87.20;101588.41;5086613;28;20036;-81
2022/03/03 08:14:21;;;;;;;112.95;33.80;;;;;;;3.71;87.10;101585.56;5081201;28;20024;-82
2022/03/03 08:16:47;;;;;;;92.03;32.40;;;;;;;3.84;86.40;101591.41;5088566;28;20021;-83
2022/03/03 08:19:15;;;;;;;92.22;30.30;;;;;;;3.75;84.92;101598.03;5073100;28;20165;-83
2022/03/03 08:21:44;;;;;;;78.32;29.00;;;;;;;3.98;84.19;101591.72;5081571;28;20373;-82
2022/03/03 08:24:11;;;;;;;87.70;29.10;;;;;;;4.23;83.87;101599.75;5071565;28;20444;-84
2022/03/03 08:26:38;;;;;;;68.80;26.42;;;;;;;4.37;83.90;101593.75;5071788;28;20028;-85
2022/03/03 08:29:07;;;;;;;57.70;24.83;;;;;;;4.85;81.84;101589.03;5051850;28;20040;-84
2022/03/03 08:31:48;;;;;;;57.78;23.75;;;;;;;4.73;82.83;101584.16;5067555;28;20025;-83
2022/03/03 08:34:42;;;;;;;50.75;23.02;;;;;;;5.23;79.32;101591.91;5059077;28;20021;-83
2022/03/03 08:37:13;;;;;;;49.30;21.90;;;;;;;5.31;77.88;101600.59;5086107;28;20040;-84
2022/03/03 08:39:40;;;;;;;47.28;20.20;;;;;;;5.21;77.96;101590.19;5080648;28;20039;-85
2022/03/03 08:42:10;;;;;;;43.63;19.48;;;;;;;5.57;76.22;101594.91;5066070;28;20033;-84
2022/03/03 08:44:38;;;;;;;34.83;18.55;;;;;;;5.70;74.13;101586.09;5093927;28;20037;-86
2022/03/03 08:47:06;;;;;;;33.88;15.88;;;;;;;5.62;73.73;101563.84;5084240;28;20035;-85
2022/03/03 08:49:40;;;;;;;34.50;15.98;;;;;;;5.97;70.56;101583.06;5076617;28;20123;-84
2022/03/03 08:52:07;;;;;;;31.40;16.27;;;;;;;6.18;71.33;101580.25;5101343;28;20443;-84
2022/03/03 08:54:33;;;;;;;29.00;15.30;;;;;;;6.24;72.22;101571.81;5080737;28;20048;-84
2022/03/03 08:56:59;;;;;;;26.25;14.10;;;;;;;6.39;69.16;101567.44;5082881;28;20039;-84
2022/03/03 08:59:24;;;;;;;26.58;14.88;;;;;;;6.04;70.22;101572.78;5099323;28;20024;-84
2022/03/03 09:01:51;;;;;;;30.58;15.10;;;;;;;6.72;71.25;101583.91;5097888;28;20033;-85
2022/03/03 09:04:18;;;;;;;29.10;14.05;;;;;;;7.27;65.52;101582.84;5060286;28;20049;-86
2022/03/03 09:06:44;;;;;;;30.63;13.55;;;;;;;7.04;66.42;101584.06;5082654;28;20043;-86
2022/03/03 09:09:10;;;;;;;26.77;13.82;;;;;;;7.41;64.52;101578.47;5095328;28;20115;-83
2022/03/03 09:11:36;;;;;;;28.70;14.20;;;;;;;8.07;63.55;101575.69;5098617;28;20043;-83
2022/03/03 09:14:02;;;;;;;29.48;13.93;;;;;;;7.52;60.73;101576.94;5089745;28;20036;-85
2022/03/03 09:16:27;;;;;;;23.05;13.23;;;;;;;7.50;63.15;101564.38;5067546;28;20036;-83
2022/03/03 09:18:53;;;;;;;23.23;13.52;;;;;;;7.61;62.03;101564.66;5094154;28;20029;-84
2022/03/03 09:21:19;;;;;;;24.20;13.40;;;;;;;7.64;62.08;101572.69;5081990;28;20062;-85
2022/03/03 09:23:45;;;;;;;25.02;14.40;;;;;;;8.36;58.87;101558.59;5104615;28;20047;-83
2022/03/03 09:26:10;;;;;;;25.60;14.02;;;;;;;8.25;61.57;101567.44;5091527;28;20032;-83
2022/03/03 09:28:36;;;;;;;26.83;14.43;;;;;;;8.16;59.47;101574.28;5084207;28;20055;-83
2022/03/03 09:31:02;;;;;;;23.92;13.75;;;;;;;8.18;61.10;101574.19;5082282;28;20086;-82
2022/03/03 09:33:28;;;;;;;26.90;14.82;;;;;;;8.03;61.76;101562.31;5070119;28;20043;-83
2022/03/03 09:35:54;;;;;;;28.23;14.32;;;;;;;8.56;61.51;101562.91;5083847;28;20329;-83
2022/03/03 09:38:20;;;;;;;27.17;15.15;;;;;;;8.49;57.43;101559.69;5091892;28;20079;-84
2022/03/03 09:40:48;;;;;;;24.90;13.95;;;;;;;8.54;59.31;101568.47;5079696;28;20028;-83
2022/03/03 09:43:13;;;;;;;20.67;12.50;;;;;;;8.78;59.36;101568.00;5062152;28;20028;-84
2022/03/03 09:45:39;;;;;;;26.98;13.77;;;;;;;8.67;59.78;101567.75;5076862;28;20032;-84
2022/03/03 09:48:07;;;;;;;25.77;13.90;;;;;;;9.40;56.22;101550.56;5070207;28;20033;-84
2022/03/03 09:50:37;;;;;;;21.88;12.88;;;;;;;9.26;55.81;101549.56;5088440;28;20699;-84
2022/03/03 09:53:15;;;;;;;24.38;12.85;;;;;;;8.74;59.45;101556.38;5078604;28;20135;-84
2022/03/03 09:55:42;;;;;;;21.88;12.80;;;;;;;9.35;58.79;101554.44;5111632;28;20064;-84
2022/03/03 09:58:08;;;;;;;26.48;13.13;;;;;;;9.23;57.04;101552.50;5083201;28;20020;-84
2022/03/03 10:00:40;;;;;;;25.40;12.95;;;;;;;9.35;56.54;101551.72;5071741;28;20127;-84
2022/03/03 10:03:13;;;;;;;29.70;13.90;;;;;;;9.47;56.64;101550.06;5080309;28;20052;-83
2022/03/03 10:05:47;;;;;;;27.23;15.05;;;;;;;9.81;53.27;101550.63;5091396;28;20544;-84
2022/03/03 10:08:16;;;;;;;23.98;13.38;;;;;;;8.76;56.76;101553.56;5077989;28;20071;-84
2022/03/03 10:10:44;;;;;;;24.05;13.60;;;;;;;9.47;56.09;101550.06;5077242;28;20048;-84
2022/03/03 10:13:10;;;;;;;26.67;15.27;;;;;;;9.40;57.23;101539.63;5065687;28;20064;-83
2022/03/03 10:15:37;;;;;;;25.65;16.30;;;;;;;9.55;55.98;101512.19;5103384;28;20410;-84
2022/03/03 10:18:06;;;;;;;26.58;14.88;;;;;;;9.48;57.47;101529.09;5081523;28;20040;-83
2022/03/03 10:20:38;;;;;;;25.90;14.32;;;;;;;9.66;55.78;101541.56;5077499;28;20025;-83
2022/03/03 10:23:08;;;;;;;25.20;14.87;;;;;;;9.89;52.33;101526.41;5061437;28;20071;-82
2022/03/03 10:25:37;;;;;;;26.00;14.70;;;;;;;9.63;53.69;101536.28;5101310;28;20304;-83
2022/03/03 10:28:13;;;;;;;22.83;12.45;;;;;;;10.37;53.22;101536.94;5080250;28;20078;-81
2022/03/03 10:31:03;;;;;;;19.38;12.32;;;;;;;10.78;48.37;101541.47;5086060;28;20051;-81
2022/03/03 10:33:39;;;;;;;20.75;11.82;;;;;;;9.84;52.94;101550.44;5066782;28;20047;-82
2022/03/03 10:36:08;;;;;;;23.25;12.98;;;;;;;9.79;51.54;101543.50;5108139;28;20059;-81
2022/03/03 10:38:43;;;;;;;19.08;11.52;;;;;;;10.05;50.76;101539.97;5097076;28;20045;-82
2022/03/03 10:41:36;;;;;;;22.83;11.48;;;;;;;10.51;47.74;101533.28;5063332;28;20040;-83
2022/03/03 10:44:12;;;;;;;23.03;12.00;;;;;;;10.39;46.21;101528.63;5086699;28;20048;-83
2022/03/03 10:47:11;;;;;;;21.13;11.57;;;;;;;10.03;49.80;101536.41;5100183;28;20472;-82
2022/03/03 10:49:47;;;;;;;17.95;11.18;;;;;;;9.81;50.58;101531.50;5095991;28;20047;-82
2022/03/03 10:52:25;;;;;;;18.25;11.13;;;;;;;10.74;49.27;101523.50;5079655;28;20419;-80
2022/03/03 10:54:55;;;;;;;19.80;12.45;;;;;;;10.39;50.94;101526.78;5060874;28;20112;-81
2022/03/03 10:58:01;;;;;;;22.98;13.32;;;;;;;10.46;51.87;101529.97;5087671;28;20040;-82
2022/03/03 11:00:29;;;;;;;20.75;12.25;;;;;;;10.54;49.36;101530.31;5072164;28;20040;-82
2022/03/03 11:02:57;;;;;;;23.55;12.77;;;;;;;10.56;51.52;101527.47;5058570;28;20028;-82
2022/03/03 11:05:26;;;;;;;24.30;12.85;;;;;;;10.69;51.93;101528.44;5088971;28;20067;-82
2022/03/03 11:07:53;;;;;;;24.27;13.73;;;;;;;10.38;51.84;101521.41;5067023;28;20052;-82
2022/03/03 11:10:24;;;;;;;22.58;13.45;;;;;;;10.59;51.27;101519.06;5072640;28;20041;-82
2022/03/03 11:12:51;;;;;;;20.08;12.27;;;;;;;10.62;50.76;101516.13;5062425;28;20059;-82